createdAt,value
2022-12-20T00:01:34.757Z,102231.16
2022-12-20T00:04:03.872Z,102235.59
2022-12-20T00:06:31.822Z,102243.50
2022-12-20T00:09:01.043Z,102242.78
2022-12-20T00:11:29.064Z,102250.63
2022-12-20T00:13:56.987Z,102254.03
2022-12-20T00:16:26.180Z,102244.50
2022-12-20T00:18:55.476Z,102249.78
2022-12-20T00:21:23.405Z,102254.06
2022-12-20T00:23:51.840Z,102248.19
2022-12-20T00:26:21.021Z,102247.25
2022-12-20T00:28:48.372Z,102248.31
2022-12-20T00:31:18.262Z,102235.22
2022-12-20T00:33:47.756Z,102232.72
2022-12-20T00:36:15.685Z,102233.59
2022-12-20T00:38:45.578Z,102235.34
2022-12-20T00:41:15.963Z,102233.63
2022-12-20T00:43:42.750Z,102231.94
2022-12-20T00:46:12.236Z,102231.09
2022-12-20T00:48:39.562Z,102221.75
2022-12-20T00:51:10.102Z,102211.38
2022-12-20T00:53:38.018Z,102206.31
2022-12-20T00:56:08.680Z,102195.88
2022-12-20T00:58:37.828Z,102186.34
2022-12-20T01:01:07.117Z,102192.38
2022-12-20T01:03:34.363Z,102197.66
2022-12-20T01:06:02.697Z,102200.22
2022-12-20T01:08:31.110Z,102195.81
2022-12-20T01:11:11.297Z,102183.00
2022-12-20T01:13:40.701Z,102195.97
2022-12-20T01:16:13.825Z,102190.78
2022-12-20T01:18:40.986Z,102192.34
2022-12-20T01:21:10.994Z,102194.09
2022-12-20T01:23:38.685Z,102198.00
2022-12-20T01:26:09.334Z,102193.41
2022-12-20T01:28:37.163Z,102187.22
2022-12-20T01:31:08.602Z,102179.59
2022-12-20T01:33:36.147Z,102175.25
2022-12-20T01:36:06.271Z,102176.00
2022-12-20T01:38:33.772Z,102165.63
2022-12-20T01:41:01.588Z,102163.88
2022-12-20T01:43:49.765Z,102156.22
2022-12-20T01:46:17.819Z,102141.59
2022-12-20T01:48:52.784Z,102148.41
2022-12-20T01:51:20.095Z,102136.38
2022-12-20T01:53:51.981Z,102135.53
2022-12-20T01:56:19.105Z,102126.19
2022-12-20T01:58:48.879Z,102123.41
2022-12-20T02:01:15.909Z,102120.13
2022-12-20T02:03:43.573Z,102115.69
2022-12-20T02:06:22.029Z,102099.38
2022-12-20T02:08:51.152Z,102098.63
2022-12-20T02:11:36.409Z,102104.69
2022-12-20T02:14:16.975Z,102101.88
2022-12-20T02:16:53.676Z,102093.22
2022-12-20T02:19:38.474Z,102099.19
2022-12-20T02:22:11.427Z,102103.50
2022-12-20T02:25:21.635Z,102100.00
2022-12-20T02:27:58.143Z,102101.72
2022-12-20T02:30:31.633Z,102106.84
2022-12-20T02:33:07.812Z,102103.38
2022-12-20T02:35:36.785Z,102101.66
2022-12-20T02:38:25.343Z,102102.50
2022-12-20T02:40:57.730Z,102102.50
2022-12-20T02:43:45.779Z,102114.56
2022-12-20T02:46:13.585Z,102105.22
2022-12-20T02:48:42.464Z,102107.16
2022-12-20T02:51:11.672Z,102104.47
2022-12-20T02:53:39.379Z,102096.59
2022-12-20T02:56:25.571Z,102088.25
2022-12-20T02:58:58.886Z,102082.16
2022-12-20T03:01:33.826Z,102067.56
2022-12-20T03:04:02.019Z,102064.13
2022-12-20T03:06:30.733Z,102063.44
2022-12-20T03:08:58.188Z,102062.41
2022-12-20T03:11:25.112Z,102058.94
2022-12-20T03:13:52.156Z,102056.44
2022-12-20T03:16:18.971Z,102052.09
2022-12-20T03:18:46.223Z,102049.63
2022-12-20T03:21:13.192Z,102048.66
2022-12-20T03:23:40.265Z,102048.69
2022-12-20T03:26:07.202Z,102048.53
2022-12-20T03:28:34.231Z,102044.28
2022-12-20T03:31:01.159Z,102038.28
2022-12-20T03:33:28.219Z,102041.56
2022-12-20T03:35:55.068Z,102047.59
2022-12-20T03:38:22.169Z,102052.75
2022-12-20T03:40:48.952Z,102051.91
2022-12-20T03:43:16.025Z,102045.78
2022-12-20T03:45:42.813Z,102050.19
2022-12-20T03:48:09.877Z,102055.28
2022-12-20T03:50:37.329Z,102045.75
2022-12-20T03:53:04.413Z,102036.19
2022-12-20T03:55:31.237Z,102044.03
2022-12-20T03:57:58.312Z,102044.94
2022-12-20T04:00:25.365Z,102049.28
2022-12-20T04:02:52.818Z,102037.00
2022-12-20T04:05:19.880Z,102033.59
2022-12-20T04:07:46.918Z,102029.28
2022-12-20T04:10:13.905Z,102023.34
2022-12-20T04:12:40.922Z,102022.22
2022-12-20T04:15:08.274Z,102024.03
2022-12-20T04:17:35.353Z,102020.66
2022-12-20T04:20:18.963Z,101999.06
2022-12-20T04:22:49.945Z,102000.88
2022-12-20T04:25:19.167Z,101996.56
2022-12-20T04:27:46.797Z,102000.84
2022-12-20T04:30:13.937Z,101998.94
2022-12-20T04:32:41.088Z,101986.13
2022-12-20T04:35:08.235Z,101992.91
2022-12-20T04:37:35.329Z,101993.88
2022-12-20T04:40:02.079Z,101999.81
2022-12-20T04:42:29.176Z,102000.03
2022-12-20T04:44:55.915Z,102008.75
2022-12-20T04:47:23.141Z,101992.16
2022-12-20T04:49:49.868Z,102000.69
2022-12-20T04:52:35.500Z,102004.13
2022-12-20T04:55:02.231Z,102015.44
2022-12-20T04:57:29.245Z,102007.00
2022-12-20T04:59:55.987Z,102011.34
2022-12-20T05:02:23.325Z,102017.16
2022-12-20T05:04:50.266Z,102020.69
2022-12-20T05:07:17.341Z,102022.34
2022-12-20T05:09:44.084Z,102025.03
2022-12-20T05:12:11.165Z,102025.19
2022-12-20T05:14:37.930Z,102023.44
2022-12-20T05:17:04.962Z,102027.66
2022-12-20T05:19:31.731Z,102034.56
2022-12-20T05:22:17.636Z,102025.91
2022-12-20T05:25:03.039Z,102031.00
2022-12-20T05:27:30.565Z,102035.41
2022-12-20T05:29:57.370Z,102035.31
2022-12-20T05:32:24.509Z,102031.00
2022-12-20T05:34:51.293Z,102044.13
2022-12-20T05:37:18.497Z,102028.53
2022-12-20T05:39:45.246Z,102021.47
2022-12-20T05:42:12.412Z,102030.16
2022-12-20T05:44:39.213Z,102034.53
2022-12-20T05:47:06.288Z,102027.56
2022-12-20T05:49:33.111Z,102030.34
2022-12-20T05:52:01.925Z,102026.88
2022-12-20T05:54:28.749Z,102033.59
2022-12-20T05:56:55.850Z,102021.34
2022-12-20T05:59:22.654Z,102016.13
2022-12-20T06:01:49.807Z,102012.66
2022-12-20T06:04:16.791Z,102011.88
2022-12-20T06:06:43.924Z,102006.66
2022-12-20T06:09:10.713Z,101999.69
2022-12-20T06:11:38.211Z,101987.59
2022-12-20T06:14:05.015Z,101988.38
2022-12-20T06:16:32.134Z,101985.75
2022-12-20T06:18:58.929Z,101978.13
2022-12-20T06:21:28.475Z,101976.41
2022-12-20T06:23:55.412Z,101987.72
2022-12-20T06:26:25.498Z,101985.91
2022-12-20T06:28:54.569Z,101987.59
2022-12-20T06:31:21.700Z,101980.84
2022-12-20T06:33:48.476Z,101988.47
2022-12-20T06:36:15.534Z,101970.88
2022-12-20T06:38:42.284Z,101972.84
2022-12-20T06:41:09.528Z,101976.25
2022-12-20T06:43:36.321Z,101973.63
2022-12-20T06:46:03.572Z,101964.84
2022-12-20T06:48:30.528Z,101967.41
2022-12-20T06:50:58.134Z,101970.97
2022-12-20T06:53:25.134Z,101969.22
2022-12-20T06:55:52.351Z,101960.66
2022-12-20T06:58:20.533Z,101954.47
2022-12-20T07:00:48.109Z,101945.53
2022-12-20T07:03:15.619Z,101948.31
2022-12-20T07:05:43.090Z,101952.47
2022-12-20T07:08:09.887Z,101952.63
2022-12-20T07:10:37.954Z,101948.22
2022-12-20T07:13:04.811Z,101934.41
2022-12-20T07:15:31.899Z,101944.00
2022-12-20T07:17:59.632Z,101943.16
2022-12-20T07:20:26.792Z,101951.75
2022-12-20T07:22:53.756Z,101957.84
2022-12-20T07:25:20.841Z,101957.94
2022-12-20T07:27:49.955Z,101959.56
2022-12-20T07:30:19.421Z,101957.91
2022-12-20T07:32:46.739Z,101971.81
2022-12-20T07:35:15.390Z,101976.13
2022-12-20T07:37:42.180Z,101968.56
2022-12-20T07:40:11.158Z,101964.22
2022-12-20T07:42:42.905Z,101958.16
2022-12-20T07:45:15.656Z,101963.34
2022-12-20T07:47:42.517Z,101952.41
2022-12-20T07:50:09.827Z,101973.13
2022-12-20T07:52:37.483Z,101965.28
2022-12-20T07:55:08.475Z,101972.28
2022-12-20T07:57:42.817Z,101968.03
2022-12-20T08:00:11.809Z,101965.31
2022-12-20T08:02:47.381Z,101974.06
2022-12-20T08:05:15.821Z,101968.09
2022-12-20T08:07:44.183Z,101955.16
2022-12-20T08:10:13.432Z,101943.91
2022-12-20T08:12:41.812Z,101936.84
2022-12-20T08:15:09.429Z,101931.59
2022-12-20T08:17:36.201Z,101926.50
2022-12-20T08:20:05.809Z,101924.84
2022-12-20T08:22:33.368Z,101918.00
2022-12-20T08:25:00.547Z,101922.38
2022-12-20T08:27:27.352Z,101923.25
2022-12-20T08:29:54.759Z,101917.13
2022-12-20T08:32:21.579Z,101919.69
2022-12-20T08:34:48.651Z,101916.31
2022-12-20T08:37:18.570Z,101928.44
2022-12-20T08:39:45.624Z,101918.25
2022-12-20T08:42:14.046Z,101914.81
2022-12-20T08:44:41.208Z,101917.41
2022-12-20T08:47:07.975Z,101914.13
2022-12-20T08:49:35.108Z,101920.97
2022-12-20T08:52:02.225Z,101920.25
2022-12-20T08:54:29.389Z,101903.88
2022-12-20T08:56:56.157Z,101901.31
2022-12-20T08:59:23.320Z,101907.31
2022-12-20T09:01:50.687Z,101899.59
2022-12-20T09:04:17.840Z,101916.88
2022-12-20T09:06:44.736Z,101918.63
2022-12-20T09:09:11.783Z,101911.75
2022-12-20T09:11:38.600Z,101908.38
2022-12-20T09:14:05.925Z,101904.94
2022-12-20T09:16:33.199Z,101911.06
2022-12-20T09:19:05.551Z,101906.81
2022-12-20T09:21:34.312Z,101911.22
2022-12-20T09:24:01.448Z,101923.41
2022-12-20T09:26:28.296Z,101901.75
2022-12-20T09:28:55.433Z,101893.19
2022-12-20T09:31:24.670Z,101893.25
2022-12-20T09:33:56.223Z,101893.28
2022-12-20T09:36:24.232Z,101890.66
2022-12-20T09:38:51.503Z,101881.94
2022-12-20T09:41:27.012Z,101875.91
2022-12-20T09:43:54.403Z,101864.69
2022-12-20T09:46:23.529Z,101865.56
2022-12-20T09:48:50.755Z,101856.88
2022-12-20T09:51:32.714Z,101855.09
2022-12-20T09:54:28.142Z,101859.41
2022-12-20T09:57:13.183Z,101852.44
2022-12-20T09:59:49.064Z,101859.38
2022-12-20T10:02:58.449Z,101851.50
2022-12-20T10:05:38.699Z,101843.63
2022-12-20T10:08:24.460Z,101850.50
2022-12-20T10:10:57.961Z,101840.97
2022-12-20T10:13:52.612Z,101837.53
2022-12-20T10:16:42.637Z,101844.41
2022-12-20T10:19:40.352Z,101834.19
2022-12-20T10:22:17.583Z,101822.16
2022-12-20T10:25:14.261Z,101817.78
2022-12-20T10:27:46.933Z,101806.53
2022-12-20T10:30:19.785Z,101807.41
2022-12-20T10:32:50.230Z,101807.34
2022-12-20T10:35:25.084Z,101803.75
2022-12-20T10:38:07.120Z,101798.41
2022-12-20T10:41:20.026Z,101769.47
2022-12-20T10:43:26.999Z,101777.09
2022-12-20T10:46:03.817Z,101780.50
2022-12-20T10:48:34.126Z,101770.44
2022-12-20T10:51:20.398Z,101775.41
2022-12-20T10:54:03.254Z,101773.28
2022-12-20T10:56:34.045Z,101767.22
2022-12-20T10:59:17.755Z,101750.09
2022-12-20T11:01:47.020Z,101747.34
2022-12-20T11:04:35.822Z,101749.22
2022-12-20T11:07:24.533Z,101749.13
2022-12-20T11:10:20.582Z,101748.47
2022-12-20T11:13:09.605Z,101731.97
2022-12-20T11:15:49.702Z,101733.75
2022-12-20T11:18:53.252Z,101734.44
2022-12-20T11:21:42.893Z,101732.69
2022-12-20T11:24:35.506Z,101738.88
2022-12-20T11:27:15.674Z,101728.28
2022-12-20T11:30:06.002Z,101715.13
2022-12-20T11:32:54.029Z,101710.88
2022-12-20T11:35:39.272Z,101699.75
2022-12-20T11:38:25.524Z,101708.44
2022-12-20T11:41:09.598Z,101697.94
2022-12-20T11:44:08.174Z,101690.94
2022-12-20T11:46:47.571Z,101690.09
2022-12-20T11:49:23.660Z,101692.59
2022-12-20T11:52:30.486Z,101681.19
2022-12-20T11:55:21.809Z,101683.84
2022-12-20T11:58:18.156Z,101696.09
2022-12-20T12:01:04.944Z,101685.53
2022-12-20T12:03:37.480Z,101683.63
2022-12-20T12:06:12.467Z,101679.31
2022-12-20T12:09:00.157Z,101675.03
2022-12-20T12:14:37.296Z,101675.56
2022-12-20T12:17:18.051Z,101670.38
2022-12-20T12:19:49.860Z,101668.75
2022-12-20T12:22:25.487Z,101665.50
2022-12-20T12:24:58.074Z,101668.88
2022-12-20T12:27:28.471Z,101653.38
2022-12-20T12:29:58.372Z,101655.97
2022-12-20T12:32:44.532Z,101653.41
2022-12-20T12:35:39.176Z,101655.19
2022-12-20T12:38:24.397Z,101643.81
2022-12-20T12:41:28.017Z,101635.19
2022-12-20T12:43:59.066Z,101633.38
2022-12-20T12:46:31.370Z,101629.97
2022-12-20T12:49:04.626Z,101630.91
2022-12-20T12:51:38.228Z,101633.53
2022-12-20T12:54:22.093Z,101636.09
2022-12-20T12:56:50.426Z,101635.22
2022-12-20T12:59:29.462Z,101635.19
2022-12-20T13:02:17.574Z,101631.72
2022-12-20T13:04:56.687Z,101629.16
2022-12-20T13:07:32.630Z,101638.69
2022-12-20T13:10:01.655Z,101629.06
2022-12-20T13:12:37.625Z,101622.09
2022-12-20T13:15:19.996Z,101624.81
2022-12-20T13:17:54.635Z,101614.34
2022-12-20T13:20:27.159Z,101619.69
2022-12-20T13:23:09.259Z,101617.97
2022-12-20T13:25:39.032Z,101612.78
2022-12-20T13:28:28.876Z,101615.47
2022-12-20T13:31:02.469Z,101606.69
2022-12-20T13:33:48.918Z,101606.66
2022-12-20T13:36:15.940Z,101597.09
2022-12-20T13:38:45.715Z,101591.91
2022-12-20T13:41:26.825Z,101599.75
2022-12-20T13:44:00.959Z,101598.81
2022-12-20T13:46:40.958Z,101604.94
2022-12-20T13:49:12.731Z,101608.28
2022-12-20T13:51:39.880Z,101601.53
2022-12-20T13:54:26.661Z,101594.59
2022-12-20T13:56:54.603Z,101589.38
2022-12-20T13:59:28.626Z,101587.66
2022-12-20T14:01:59.568Z,101582.50
2022-12-20T14:04:38.753Z,101574.72
2022-12-20T14:07:06.238Z,101573.81
2022-12-20T14:09:36.516Z,101573.88
2022-12-20T14:12:12.673Z,101566.94
2022-12-20T14:14:44.610Z,101559.16
2022-12-20T14:17:23.345Z,101555.75
2022-12-20T14:20:26.222Z,101556.66
2022-12-20T14:23:05.597Z,101563.69
2022-12-20T14:25:53.396Z,101571.56
2022-12-20T14:28:36.908Z,101564.59
2022-12-20T14:31:04.951Z,101564.69
2022-12-20T14:33:41.215Z,101561.22
2022-12-20T14:36:20.556Z,101559.50
2022-12-20T14:38:50.734Z,101554.38
2022-12-20T14:41:46.855Z,101544.84
2022-12-20T14:44:17.697Z,101542.19
2022-12-20T14:47:10.104Z,101546.53
2022-12-20T14:49:38.749Z,101541.38
2022-12-20T14:52:11.715Z,101546.59
2022-12-20T14:55:12.916Z,101538.81
2022-12-20T14:57:45.896Z,101542.28
2022-12-20T15:00:18.907Z,101542.28
2022-12-20T15:03:06.646Z,101542.31
2022-12-20T15:05:40.547Z,101547.50
2022-12-20T15:08:23.752Z,101549.25
2022-12-20T15:11:08.914Z,101551.00
2022-12-20T15:13:35.790Z,101542.34
2022-12-20T15:16:17.454Z,101542.34
2022-12-20T15:18:45.898Z,101537.16
2022-12-20T15:21:29.257Z,101540.63
2022-12-20T15:23:59.505Z,101531.97
2022-12-20T15:26:27.354Z,101525.88
2022-12-20T15:28:54.509Z,101531.09
2022-12-20T15:31:33.041Z,101531.06
2022-12-20T15:34:03.794Z,101541.47
2022-12-20T15:36:31.318Z,101538.88
2022-12-20T15:39:14.920Z,101545.81
2022-12-20T15:41:48.759Z,101554.50
2022-12-20T15:44:22.048Z,101560.56
2022-12-20T15:46:50.155Z,101559.69
2022-12-20T15:49:22.739Z,101557.94
2022-12-20T15:51:52.331Z,101557.09
2022-12-20T15:54:29.575Z,101551.88
2022-12-20T15:56:58.316Z,101560.56
2022-12-20T15:59:58.538Z,101558.81
2022-12-20T16:02:24.888Z,101547.53
2022-12-20T16:04:53.605Z,101544.97
2022-12-20T16:07:21.180Z,101541.50
2022-12-20T16:09:48.190Z,101543.25
2022-12-20T16:12:19.185Z,101544.09
2022-12-20T16:14:46.057Z,101544.97
2022-12-20T16:17:14.347Z,101549.31
2022-12-20T16:19:42.522Z,101557.06
2022-12-20T16:22:18.291Z,101545.84
2022-12-20T16:24:45.684Z,101545.81
2022-12-20T16:27:15.655Z,101551.91
2022-12-20T16:29:42.510Z,101537.19
2022-12-20T16:32:17.657Z,101538.91
2022-12-20T16:34:45.367Z,101532.84
2022-12-20T16:37:12.765Z,101534.59
2022-12-20T16:39:40.070Z,101534.56
2022-12-20T16:42:18.646Z,101538.94
2022-12-20T16:44:46.225Z,101536.31
2022-12-20T16:47:14.655Z,101531.13
2022-12-20T16:49:51.289Z,101528.53
2022-12-20T16:52:22.016Z,101534.59
2022-12-20T16:54:49.703Z,101535.44
2022-12-20T16:57:21.264Z,101514.69
2022-12-20T16:59:48.359Z,101516.44
2022-12-20T17:02:32.827Z,101512.97
2022-12-20T17:05:01.140Z,101506.88
2022-12-20T17:07:28.281Z,101503.44
2022-12-20T17:09:55.132Z,101506.91
2022-12-20T17:12:23.417Z,101503.41
2022-12-20T17:14:50.578Z,101506.00
2022-12-20T17:17:17.771Z,101512.09
2022-12-20T17:19:44.852Z,101499.97
2022-12-20T17:24:57.345Z,101499.09
2022-12-20T17:27:24.949Z,101502.56
2022-12-20T17:29:52.199Z,101496.50
2022-12-20T17:32:25.838Z,101498.25
2022-12-20T17:34:53.168Z,101496.50
2022-12-20T17:37:21.495Z,101493.06
2022-12-20T17:39:48.681Z,101500.84
2022-12-20T17:42:16.647Z,101512.06
2022-12-20T17:44:43.493Z,101506.88
2022-12-20T17:47:11.679Z,101495.66
2022-12-20T17:49:39.197Z,101494.78
2022-12-20T17:52:06.379Z,101498.25
2022-12-20T17:54:39.565Z,101498.22
2022-12-20T17:57:14.254Z,101490.44
2022-12-20T17:59:40.957Z,101497.34
2022-12-20T18:02:28.504Z,101489.59
2022-12-20T18:04:55.427Z,101487.00
2022-12-20T18:07:22.574Z,101480.06
2022-12-20T18:09:49.780Z,101482.66
2022-12-20T18:12:17.824Z,101484.38
2022-12-20T18:14:45.074Z,101483.53
2022-12-20T18:17:12.403Z,101480.91
2022-12-20T18:19:40.555Z,101475.75
2022-12-20T18:22:07.644Z,101463.63
2022-12-20T18:24:34.424Z,101472.28
2022-12-20T18:27:01.527Z,101454.97
2022-12-20T18:29:29.255Z,101459.31
2022-12-20T18:31:56.362Z,101452.41
2022-12-20T18:34:23.585Z,101448.06
2022-12-20T18:36:50.641Z,101450.69
2022-12-20T18:39:17.469Z,101448.06
2022-12-20T18:41:44.686Z,101455.84
2022-12-20T18:44:11.832Z,101448.94
2022-12-20T18:46:39.027Z,101440.28
2022-12-20T18:49:05.868Z,101440.28
2022-12-20T18:51:38.453Z,101439.44
2022-12-20T18:54:09.777Z,101436.81
2022-12-20T18:56:38.670Z,101436.81
2022-12-20T18:59:11.826Z,101435.97
2022-12-20T19:01:41.920Z,101436.81
2022-12-20T19:04:09.594Z,101443.72
2022-12-20T19:06:37.400Z,101442.88
2022-12-20T19:09:08.303Z,101432.50
2022-12-20T19:11:35.772Z,101433.38
2022-12-20T19:14:03.595Z,101433.34
2022-12-20T19:16:32.834Z,101427.28
2022-12-20T19:19:02.941Z,101420.38
2022-12-20T19:21:32.919Z,101422.97
2022-12-20T19:24:03.935Z,101419.53
2022-12-20T19:26:31.378Z,101413.47
2022-12-20T19:28:58.735Z,101408.28
2022-12-20T19:31:28.380Z,101403.94
2022-12-20T19:34:01.455Z,101404.84
2022-12-20T19:36:31.539Z,101404.81
2022-12-20T19:39:00.962Z,101404.84
2022-12-20T19:41:31.251Z,101399.66
2022-12-20T19:43:58.475Z,101415.19
2022-12-20T19:46:29.277Z,101416.94
2022-12-20T19:48:58.632Z,101420.38
2022-12-20T19:51:27.445Z,101426.44
2022-12-20T19:53:55.447Z,101424.72
2022-12-20T19:56:33.818Z,101436.81
2022-12-20T19:59:01.250Z,101436.81
2022-12-20T20:01:29.237Z,101435.09
2022-12-20T20:03:58.429Z,101433.38
2022-12-20T20:06:26.735Z,101435.97
2022-12-20T20:08:57.527Z,101427.31
2022-12-20T20:11:25.399Z,101429.91
2022-12-20T20:13:52.671Z,101422.97
2022-12-20T20:16:22.525Z,101424.72
2022-12-20T20:18:56.423Z,101435.09
2022-12-20T20:21:23.476Z,101426.41
2022-12-20T20:23:51.847Z,101429.03
2022-12-20T20:26:22.860Z,101422.09
2022-12-20T20:28:50.227Z,101428.19
2022-12-20T20:31:18.628Z,101429.91
2022-12-20T20:33:46.095Z,101427.28
2022-12-20T20:36:19.213Z,101424.69
2022-12-20T20:38:46.520Z,101416.91
2022-12-20T20:41:14.203Z,101409.13
2022-12-20T20:43:41.767Z,101410.88
2022-12-20T20:46:11.568Z,101410.00
2022-12-20T20:48:39.211Z,101412.59
2022-12-20T20:51:09.063Z,101414.31
2022-12-20T20:53:36.633Z,101405.66
2022-12-20T20:56:05.317Z,101407.41
2022-12-20T20:58:32.668Z,101397.91
2022-12-20T21:01:01.541Z,101393.56
2022-12-20T21:03:30.746Z,101398.75
2022-12-20T21:08:45.185Z,101397.03
2022-12-20T21:11:15.573Z,101389.25
2022-12-20T21:13:42.505Z,101390.09
2022-12-20T21:16:12.790Z,101384.06
2022-12-20T21:18:40.033Z,101379.72
2022-12-20T21:21:11.824Z,101380.63
2022-12-20T21:23:43.328Z,101378.00
2022-12-20T21:26:10.486Z,101378.00
2022-12-20T21:28:37.374Z,101385.75
2022-12-20T21:31:09.115Z,101374.53
2022-12-20T21:33:36.077Z,101368.47
2022-12-20T21:36:08.553Z,101357.25
2022-12-20T21:38:35.297Z,101358.09
2022-12-20T21:41:04.507Z,101365.03
2022-12-20T21:43:31.409Z,101367.63
2022-12-20T21:45:58.974Z,101360.69
2022-12-20T21:48:26.762Z,101347.72
2022-12-20T21:51:02.065Z,101341.66
2022-12-20T21:53:30.114Z,101344.25
2022-12-20T21:56:00.652Z,101340.81
2022-12-20T21:58:30.084Z,101335.59
2022-12-20T22:00:58.501Z,101318.31
2022-12-20T22:03:27.154Z,101325.25
2022-12-20T22:06:01.082Z,101330.41
2022-12-20T22:08:28.621Z,101333.88
2022-12-20T22:11:04.638Z,101325.22
2022-12-20T22:13:39.063Z,101320.91
2022-12-20T22:16:15.358Z,101320.03
2022-12-20T22:18:43.557Z,101311.41
2022-12-20T22:21:13.208Z,101299.28
2022-12-20T22:23:40.592Z,101297.56
2022-12-20T22:26:11.152Z,101292.38
2022-12-20T22:28:39.455Z,101294.97
2022-12-20T22:31:10.654Z,101287.16
2022-12-20T22:33:39.176Z,101283.72
2022-12-20T22:36:07.078Z,101288.06
2022-12-20T22:38:34.673Z,101275.91
2022-12-20T22:41:14.902Z,101275.91
2022-12-20T22:43:42.719Z,101269.88
2022-12-20T22:46:15.731Z,101256.06
2022-12-20T22:48:42.842Z,101247.34
2022-12-20T22:51:12.806Z,101255.16
2022-12-20T22:53:40.291Z,101256.84
2022-12-20T22:56:07.802Z,101249.97
2022-12-20T22:58:36.092Z,101262.09
2022-12-20T23:01:05.719Z,101244.75
2022-12-20T23:03:32.856Z,101241.34
2022-12-20T23:06:01.917Z,101239.56
2022-12-20T23:08:31.183Z,101235.25
2022-12-20T23:11:17.056Z,101228.34
2022-12-20T23:14:02.540Z,101228.34
2022-12-20T23:16:29.871Z,101230.06
2022-12-20T23:18:59.998Z,101236.09
2022-12-20T23:21:48.598Z,101231.75
2022-12-20T23:24:15.860Z,101225.69
2022-12-20T23:26:43.508Z,101225.69
2022-12-20T23:29:11.718Z,101224.84
2022-12-20T23:31:38.978Z,101218.78
2022-12-20T23:34:07.028Z,101227.41
2022-12-20T23:36:34.492Z,101218.72
2022-12-20T23:39:01.701Z,101209.19
2022-12-20T23:41:29.391Z,101205.78
2022-12-20T23:43:56.492Z,101198.00
2022-12-20T23:46:24.480Z,101197.09
2022-12-20T23:48:52.384Z,101204.88
2022-12-20T23:51:20.046Z,101188.47
2022-12-20T23:53:47.013Z,101184.13
2022-12-20T23:56:17.524Z,101192.78
2022-12-20T23:58:46.035Z,101191.06
